Time,TemperatureF,DewpointF,PressureIn,WindDirection,WindDirectionDegrees,WindSpeedMPH,WindSpeedGustMPH,Humidity,HourlyPrecipIn,Conditions,Clouds,dailyrainin,SoftwareType,DateUTC
2013-10-19 00:14:00,38.0,36.0,29.69,SW,225,1.0,2.0,93,0.00,,,0.00,TxWx,2013-10-19 04:14:00,
2013-10-19 00:20:00,38.0,36.0,29.69,SSW,202,1.0,1.0,93,0.00,,,0.00,TxWx,2013-10-19 04:20:00,
2013-10-19 00:25:00,38.0,36.0,29.70,SW,225,3.0,3.0,94,0.00,,,0.00,TxWx,2013-10-19 04:25:00,
2013-10-19 00:30:00,38.0,36.0,29.69,WSW,247,3.0,3.0,94,0.00,,,0.00,TxWx,2013-10-19 04:30:00,
2013-10-19 00:35:00,38.0,36.0,29.69,SW,225,2.0,2.0,94,0.00,,,0.00,TxWx,2013-10-19 04:35:00,
2013-10-19 00:40:00,38.0,36.0,29.69,SW,225,2.0,2.0,94,0.00,,,0.00,TxWx,2013-10-19 04:40:00,
2013-10-19 00:45:00,38.0,37.0,29.69,SW,225,1.0,1.0,95,0.00,,,0.00,TxWx,2013-10-19 04:45:00,
2013-10-19 00:50:00,39.0,38.0,29.69,SW,225,1.0,2.0,95,0.00,,,0.00,TxWx,2013-10-19 04:50:00,
2013-10-19 00:55:00,39.0,38.0,29.69,SW,225,1.0,2.0,95,0.00,,,0.00,TxWx,2013-10-19 04:55:00,
2013-10-19 01:00:00,38.0,37.0,29.68,SSW,202,1.0,1.0,95,0.00,,,0.00,TxWx,2013-10-19 05:00:00,
2013-10-19 01:05:00,38.0,37.0,29.68,South,180,1.0,2.0,95,0.00,,,0.00,TxWx,2013-10-19 05:05:00,
2013-10-19 01:10:00,38.0,37.0,29.68,SSW,202,1.0,1.0,95,0.00,,,0.00,TxWx,2013-10-19 05:10:00,
2013-10-19 01:15:00,38.0,37.0,29.68,SSW,202,1.0,1.0,95,0.00,,,0.00,TxWx,2013-10-19 05:15:00,
2013-10-19 01:21:00,37.0,36.0,29.68,SW,225,1.0,1.0,95,0.00,,,0.00,TxWx,2013-10-19 05:21:00,
2013-10-19 01:26:00,37.0,36.0,29.69,SSW,202,2.0,2.0,96,0.00,,,0.00,TxWx,2013-10-19 05:26:00,
2013-10-19 01:31:00,37.0,36.0,29.69,West,270,2.0,2.0,96,0.00,,,0.00,TxWx,2013-10-19 05:31:00,
2013-10-19 01:36:00,37.0,36.0,29.69,WSW,247,2.0,3.0,96,0.00,,,0.00,TxWx,2013-10-19 05:36:00,
2013-10-19 01:41:00,37.0,36.0,29.69,SW,225,1.0,2.0,97,0.00,,,0.00,TxWx,2013-10-19 05:41:00,
2013-10-19 01:46:00,38.0,37.0,29.69,SW,225,3.0,3.0,97,0.00,,,0.00,TxWx,2013-10-19 05:46:00,
2013-10-19 01:51:00,37.0,36.0,29.69,SW,225,2.0,3.0,97,0.00,,,0.00,TxWx,2013-10-19 05:51:00,
2013-10-19 01:56:00,37.0,36.0,29.69,SW,225,1.0,2.0,97,0.00,,,0.00,TxWx,2013-10-19 05:56:00,
2013-10-19 02:01:00,37.0,36.0,29.69,SSW,202,2.0,2.0,97,0.00,,,0.00,TxWx,2013-10-19 06:01:00,
2013-10-19 02:06:00,36.0,35.0,29.69,WSW,247,1.0,1.0,97,0.00,,,0.00,TxWx,2013-10-19 06:06:00,
2013-10-19 02:12:00,36.0,35.0,29.69,South,180,0.0,0.0,97,0.00,,,0.00,TxWx,2013-10-19 06:12:00,
2013-10-19 02:17:00,36.0,35.0,29.69,SSW,202,0.0,0.0,97,0.00,,,0.00,TxWx,2013-10-19 06:17:00,
2013-10-19 02:22:00,36.0,35.0,29.69,SW,225,1.0,1.0,97,0.00,,,0.00,TxWx,2013-10-19 06:22:00,
2013-10-19 02:27:00,36.0,35.0,29.69,SSW,202,1.0,1.0,97,0.00,,,0.00,TxWx,2013-10-19 06:27:00,
2013-10-19 02:32:00,35.0,34.0,29.69,WSW,247,1.0,2.0,97,0.00,,,0.00,TxWx,2013-10-19 06:32:00,
2013-10-19 02:37:00,35.0,34.0,29.69,SSW,202,1.0,1.0,97,0.00,,,0.00,TxWx,2013-10-19 06:37:00,
2013-10-19 02:42:00,35.0,34.0,29.69,SE,135,0.0,0.0,98,0.00,,,0.00,TxWx,2013-10-19 06:42:00,
2013-10-19 02:47:00,35.0,34.0,29.69,SSW,202,0.0,0.0,98,0.00,,,0.00,TxWx,2013-10-19 06:47:00,
2013-10-19 02:52:00,35.0,34.0,29.69,SSW,202,0.0,0.0,97,0.00,,,0.00,TxWx,2013-10-19 06:52:00,
2013-10-19 02:57:00,35.0,34.0,29.69,South,180,0.0,0.0,98,0.00,,,0.00,TxWx,2013-10-19 06:57:00,
2013-10-19 03:03:00,35.0,34.0,29.69,SSW,202,0.0,0.0,98,0.00,,,0.00,TxWx,2013-10-19 07:03:00,
2013-10-19 03:08:00,34.0,33.0,29.69,South,180,0.0,0.0,98,0.00,,,0.00,TxWx,2013-10-19 07:08:00,
2013-10-19 03:13:00,34.0,33.0,29.69,South,180,0.0,0.0,98,0.00,,,0.00,TxWx,2013-10-19 07:13:00,
2013-10-19 03:18:00,34.0,33.0,29.69,SSW,202,0.0,0.0,98,0.00,,,0.00,TxWx,2013-10-19 07:18:00,
2013-10-19 03:23:00,34.0,33.0,29.69,SSW,202,0.0,0.0,98,0.00,,,0.00,TxWx,2013-10-19 07:23:00,
2013-10-19 03:28:00,34.0,33.0,29.69,SSW,202,0.0,0.0,98,0.00,,,0.00,TxWx,2013-10-19 07:28:00,
2013-10-19 03:33:00,34.0,33.0,29.69,SSW,202,0.0,0.0,98,0.00,,,0.00,TxWx,2013-10-19 07:33:00,
2013-10-19 03:38:00,34.0,33.0,29.69,SW,225,0.0,0.0,98,0.00,,,0.00,TxWx,2013-10-19 07:38:00,
2013-10-19 03:43:00,34.0,33.0,29.69,SSW,202,0.0,0.0,98,0.00,,,0.00,TxWx,2013-10-19 07:43:00,
2013-10-19 03:48:00,34.0,33.0,29.69,SSW,202,0.0,0.0,98,0.00,,,0.00,TxWx,2013-10-19 07:48:00,
2013-10-19 03:53:00,34.0,33.0,29.69,SSW,202,0.0,0.0,98,0.00,,,0.00,TxWx,2013-10-19 07:53:00,
2013-10-19 03:58:00,34.0,33.0,29.69,SSW,202,0.0,0.0,98,0.00,,,0.00,TxWx,2013-10-19 07:58:00,
2013-10-19 04:03:00,34.0,33.0,29.69,South,180,0.0,0.0,98,0.00,,,0.00,TxWx,2013-10-19 08:03:00,
2013-10-19 04:09:00,34.0,33.0,29.70,South,180,0.0,0.0,98,0.00,,,0.00,TxWx,2013-10-19 08:09:00,
2013-10-19 04:14:00,34.0,34.0,29.70,South,180,0.0,0.0,99,0.00,,,0.00,TxWx,2013-10-19 08:14:00,
2013-10-19 04:19:00,34.0,34.0,29.70,South,180,0.0,0.0,99,0.00,,,0.00,TxWx,2013-10-19 08:19:00,
2013-10-19 04:24:00,34.0,34.0,29.70,SSW,202,0.0,0.0,99,0.00,,,0.00,TxWx,2013-10-19 08:24:00,
2013-10-19 04:29:00,34.0,34.0,29.70,South,180,0.0,0.0,99,0.00,,,0.00,TxWx,2013-10-19 08:29:00,
2013-10-19 04:34:00,34.0,34.0,29.70,South,180,0.0,0.0,99,0.00,,,0.00,TxWx,2013-10-19 08:34:00,
2013-10-19 04:39:00,34.0,34.0,29.70,South,180,0.0,0.0,99,0.00,,,0.00,TxWx,2013-10-19 08:39:00,
2013-10-19 04:44:00,34.0,34.0,29.71,South,180,0.0,0.0,99,0.00,,,0.00,TxWx,2013-10-19 08:44:00,
2013-10-19 04:49:00,34.0,34.0,29.70,South,180,0.0,0.0,99,0.00,,,0.00,TxWx,2013-10-19 08:49:00,
2013-10-19 04:54:00,34.0,34.0,29.70,South,180,0.0,0.0,99,0.00,,,0.00,TxWx,2013-10-19 08:54:00,
2013-10-19 04:59:00,34.0,34.0,29.70,SSE,157,0.0,0.0,99,0.00,,,0.00,TxWx,2013-10-19 08:59:00,
2013-10-19 05:05:00,34.0,34.0,29.70,SSW,202,0.0,0.0,99,0.00,,,0.00,TxWx,2013-10-19 09:05:00,
2013-10-19 05:10:00,34.0,34.0,29.70,South,180,0.0,0.0,99,0.00,,,0.00,TxWx,2013-10-19 09:10:00,
2013-10-19 05:15:00,34.0,34.0,29.70,South,180,0.0,0.0,99,0.00,,,0.00,TxWx,2013-10-19 09:15:00,
2013-10-19 05:20:00,34.0,34.0,29.70,SSW,202,0.0,0.0,99,0.00,,,0.00,TxWx,2013-10-19 09:20:00,
2013-10-19 05:25:00,34.0,34.0,29.70,South,180,0.0,0.0,99,0.00,,,0.00,TxWx,2013-10-19 09:25:00,
2013-10-19 05:30:00,33.0,33.0,29.71,South,180,1.0,2.0,99,0.00,,,0.00,TxWx,2013-10-19 09:30:00,
2013-10-19 05:35:00,33.0,33.0,29.70,South,180,0.0,0.0,100,0.00,,,0.00,TxWx,2013-10-19 09:35:00,
2013-10-19 05:40:00,33.0,33.0,29.70,South,180,0.0,0.0,100,0.00,,,0.00,TxWx,2013-10-19 09:40:00,
2013-10-19 05:45:00,33.0,33.0,29.70,SSW,202,0.0,0.0,100,0.00,,,0.00,TxWx,2013-10-19 09:45:00,
2013-10-19 05:50:00,33.0,33.0,29.70,South,180,0.0,1.0,100,0.00,,,0.00,TxWx,2013-10-19 09:50:00,
2013-10-19 05:55:00,33.0,33.0,29.70,South,180,0.0,0.0,100,0.00,,,0.00,TxWx,2013-10-19 09:55:00,
2013-10-19 06:01:00,33.0,33.0,29.70,SSW,202,1.0,1.0,100,0.00,,,0.00,TxWx,2013-10-19 10:01:00,
2013-10-19 06:06:00,33.0,33.0,29.71,SSW,202,0.0,0.0,100,0.00,,,0.00,TxWx,2013-10-19 10:06:00,
2013-10-19 06:11:00,33.0,33.0,29.71,SSE,157,0.0,0.0,100,0.00,,,0.00,TxWx,2013-10-19 10:11:00,
2013-10-19 06:15:00,55.0,42.0,29.59,SE,135,5.0,6.0,62,0.00,,,0.00,TxWx,2013-10-19 10:15:00,
2013-10-19 06:16:00,33.0,33.0,29.70,SSE,157,0.0,0.0,100,0.00,,,0.00,TxWx,2013-10-19 10:16:00,
2013-10-19 06:18:00,55.0,42.0,29.59,SW,225,5.0,6.0,62,0.00,,,0.00,TxWx,2013-10-19 10:18:00,
2013-10-19 06:19:00,55.0,42.0,29.59,SW,225,6.0,7.0,62,0.00,,,0.00,TxWx,2013-10-19 10:19:00,
2013-10-19 06:20:00,55.0,42.0,29.59,WNW,292,2.0,4.0,62,0.00,,,0.00,TxWx,2013-10-19 10:20:00,
2013-10-19 06:21:00,33.0,33.0,29.71,SSE,157,1.0,1.0,100,0.00,,,0.00,TxWx,2013-10-19 10:21:00,
2013-10-19 06:23:00,55.0,42.0,29.58,SSW,202,3.0,3.0,62,0.00,,,0.00,TxWx,2013-10-19 10:23:00,
2013-10-19 06:24:00,55.0,42.0,29.58,South,180,3.0,4.0,62,0.00,,,0.00,TxWx,2013-10-19 10:24:00,
2013-10-19 06:25:00,55.0,42.0,29.58,SE,135,5.0,5.0,62,0.00,,,0.00,TxWx,2013-10-19 10:25:00,
2013-10-19 06:26:00,33.0,33.0,29.71,South,180,0.0,1.0,100,0.00,,,0.00,TxWx,2013-10-19 10:26:00,
2013-10-19 06:28:00,55.0,42.0,29.58,SSE,157,5.0,10.0,61,0.00,,,0.00,TxWx,2013-10-19 10:28:00,
2013-10-19 06:31:00,33.0,33.0,29.70,South,180,0.0,0.0,100,0.00,,,0.00,TxWx,2013-10-19 10:31:00,
2013-10-19 06:32:00,55.0,42.0,29.57,SSW,202,5.0,6.0,62,0.00,,,0.00,TxWx,2013-10-19 10:32:00,
2013-10-19 06:33:00,55.0,42.0,29.57,West,270,3.0,5.0,62,0.00,,,0.00,TxWx,2013-10-19 10:33:00,
2013-10-19 06:35:00,55.0,42.0,29.57,SSE,157,1.0,3.0,62,0.00,,,0.00,TxWx,2013-10-19 10:35:00,
2013-10-19 06:36:00,33.0,33.0,29.70,ESE,112,1.0,2.0,100,0.00,,,0.00,TxWx,2013-10-19 10:36:00,
2013-10-19 06:37:00,55.0,42.0,29.58,South,180,2.0,3.0,63,0.00,,,0.00,TxWx,2013-10-19 10:37:00,
2013-10-19 06:38:00,55.0,42.0,29.58,SSW,202,3.0,4.0,63,0.00,,,0.00,TxWx,2013-10-19 10:38:00,
2013-10-19 06:39:00,55.0,42.0,29.58,SW,225,4.0,5.0,63,0.00,,,0.00,TxWx,2013-10-19 10:39:00,
2013-10-19 06:40:00,55.0,42.0,29.58,SE,135,1.0,2.0,63,0.00,,,0.00,TxWx,2013-10-19 10:40:00,
2013-10-19 06:41:00,33.0,33.0,29.70,ESE,112,2.0,2.0,100,0.00,,,0.00,TxWx,2013-10-19 10:41:00,
2013-10-19 06:47:00,33.0,33.0,29.70,South,180,0.0,0.0,100,0.00,,,0.00,TxWx,2013-10-19 10:47:00,
2013-10-19 06:52:00,33.0,33.0,29.70,SE,135,1.0,1.0,100,0.00,,,0.00,TxWx,2013-10-19 10:52:00,
2013-10-19 06:57:00,33.0,33.0,29.70,South,180,0.0,0.0,100,0.00,,,0.00,TxWx,2013-10-19 10:57:00,
2013-10-19 07:02:00,33.0,33.0,29.70,SSW,202,0.0,0.0,100,0.00,,,0.00,TxWx,2013-10-19 11:02:00,
2013-10-19 07:07:00,33.0,33.0,29.70,South,180,0.0,0.0,100,0.00,,,0.00,TxWx,2013-10-19 11:07:00,
2013-10-19 07:12:00,33.0,33.0,29.69,SSW,202,0.0,0.0,100,0.00,,,0.00,TxWx,2013-10-19 11:12:00,
2013-10-19 07:17:00,33.0,33.0,29.70,SSE,157,0.0,0.0,100,0.00,,,0.00,TxWx,2013-10-19 11:17:00,
2013-10-19 07:22:00,33.0,33.0,29.70,WSW,247,0.0,0.0,100,0.00,,,0.00,TxWx,2013-10-19 11:22:00,
2013-10-19 07:27:00,33.0,33.0,29.70,South,180,0.0,0.0,100,0.00,,,0.00,TxWx,2013-10-19 11:27:00,
2013-10-19 07:32:00,33.0,33.0,29.69,SSW,202,0.0,0.0,100,0.00,,,0.00,TxWx,2013-10-19 11:32:00,
2013-10-19 07:37:00,33.0,33.0,29.70,SSE,157,0.0,0.0,100,0.00,,,0.00,TxWx,2013-10-19 11:37:00,
2013-10-19 07:42:00,33.0,33.0,29.70,SSW,202,0.0,0.0,100,0.00,,,0.00,TxWx,2013-10-19 11:42:00,
2013-10-19 07:48:00,33.0,33.0,29.70,SSE,157,0.0,0.0,100,0.00,,,0.00,TxWx,2013-10-19 11:48:00,
2013-10-19 07:52:00,33.0,33.0,29.70,SE,135,0.0,0.0,100,0.00,,,0.00,TxWx,2013-10-19 11:52:00,
2013-10-19 07:58:00,33.0,33.0,29.70,ESE,112,1.0,2.0,100,0.00,,,0.00,TxWx,2013-10-19 11:58:00,
2013-10-19 08:03:00,33.0,33.0,29.70,SSE,157,0.0,1.0,100,0.00,,,0.00,TxWx,2013-10-19 12:03:00,
2013-10-19 08:08:00,33.0,33.0,29.71,South,180,0.0,0.0,100,0.00,,,0.00,TxWx,2013-10-19 12:08:00,
2013-10-19 08:13:00,33.0,33.0,29.71,SSE,157,1.0,1.0,100,0.00,,,0.00,TxWx,2013-10-19 12:13:00,
2013-10-19 08:18:00,33.0,33.0,29.71,ESE,112,1.0,2.0,100,0.00,,,0.00,TxWx,2013-10-19 12:18:00,
2013-10-19 08:23:00,33.0,33.0,29.71,South,180,0.0,0.0,100,0.00,,,0.00,TxWx,2013-10-19 12:23:00,
2013-10-19 08:29:00,34.0,34.0,29.71,South,180,1.0,1.0,100,0.00,,,0.00,TxWx,2013-10-19 12:29:00,
2013-10-19 08:34:00,34.0,34.0,29.71,SE,135,1.0,1.0,100,0.00,,,0.00,TxWx,2013-10-19 12:34:00,
2013-10-19 08:39:00,34.0,34.0,29.71,South,180,0.0,1.0,100,0.00,,,0.00,TxWx,2013-10-19 12:39:00,
2013-10-19 08:44:00,34.0,34.0,29.71,South,180,0.0,0.0,100,0.00,,,0.00,TxWx,2013-10-19 12:44:00,
2013-10-19 08:49:00,35.0,35.0,29.70,East,90,1.0,1.0,100,0.00,,,0.00,TxWx,2013-10-19 12:49:00,
2013-10-19 08:54:00,35.0,35.0,29.71,SSE,157,0.0,1.0,100,0.00,,,0.00,TxWx,2013-10-19 12:54:00,
2013-10-19 08:59:00,35.0,35.0,29.71,South,180,0.0,0.0,100,0.00,,,0.00,TxWx,2013-10-19 12:59:00,
2013-10-19 10:10:00,51.0,40.0,29.52,South,180,3.0,3.0,66,0.00,,,0.00,TxWx,2013-10-19 14:10:00,
2013-10-19 10:11:00,51.0,40.0,29.52,WSW,247,6.0,6.0,66,0.00,,,0.00,TxWx,2013-10-19 14:11:00,
2013-10-19 10:12:00,51.0,40.0,29.52,SW,225,5.0,8.0,66,0.00,,,0.00,TxWx,2013-10-19 14:12:00,
2013-10-19 10:13:00,51.0,40.0,29.52,South,180,2.0,3.0,66,0.00,,,0.00,TxWx,2013-10-19 14:13:00,
2013-10-19 10:14:00,51.0,40.0,29.52,ESE,112,4.0,5.0,66,0.00,,,0.00,TxWx,2013-10-19 14:14:00,
2013-10-19 10:15:00,51.0,40.0,29.52,South,180,4.0,6.0,66,0.00,,,0.00,TxWx,2013-10-19 14:15:00,
2013-10-19 10:16:00,51.0,40.0,29.51,ESE,112,3.0,5.0,66,0.00,,,0.00,TxWx,2013-10-19 14:16:00,
2013-10-19 10:17:00,51.0,40.0,29.52,ESE,112,6.0,6.0,66,0.00,,,0.00,TxWx,2013-10-19 14:17:00,
2013-10-19 10:18:00,51.0,40.0,29.52,SSE,157,3.0,7.0,66,0.00,,,0.00,TxWx,2013-10-19 14:18:00,
2013-10-19 10:19:00,51.0,40.0,29.52,SW,225,8.0,8.0,66,0.00,,,0.00,TxWx,2013-10-19 14:19:00,
2013-10-19 10:20:00,51.0,40.0,29.52,SSW,202,3.0,3.0,66,0.00,,,0.00,TxWx,2013-10-19 14:20:00,
2013-10-19 10:21:00,51.0,40.0,29.52,SSW,202,2.0,5.0,66,0.00,,,0.00,TxWx,2013-10-19 14:21:00,
2013-10-19 10:23:00,51.0,40.0,29.52,South,180,4.0,5.0,66,0.00,,,0.00,TxWx,2013-10-19 14:23:00,
2013-10-19 10:24:00,51.0,40.0,29.51,West,270,3.0,3.0,67,0.00,,,0.00,TxWx,2013-10-19 14:24:00,
2013-10-19 10:25:00,51.0,40.0,29.51,SSW,202,10.0,12.0,67,0.00,,,0.00,TxWx,2013-10-19 14:25:00,
2013-10-19 10:26:00,51.0,40.0,29.52,SSW,202,10.0,10.0,67,0.00,,,0.00,TxWx,2013-10-19 14:26:00,
2013-10-19 10:27:00,51.0,40.0,29.52,SW,225,5.0,6.0,67,0.00,,,0.00,TxWx,2013-10-19 14:27:00,
2013-10-19 10:29:00,51.0,40.0,29.52,SE,135,9.0,9.0,67,0.00,,,0.00,TxWx,2013-10-19 14:29:00,
2013-10-19 10:31:00,51.0,40.0,29.52,WSW,247,6.0,6.0,67,0.00,,,0.00,TxWx,2013-10-19 14:31:00,
2013-10-19 10:32:00,51.0,40.0,29.52,SE,135,7.0,8.0,67,0.00,,,0.00,TxWx,2013-10-19 14:32:00,
2013-10-19 10:33:00,51.0,40.0,29.52,SW,225,11.0,11.0,67,0.00,,,0.00,TxWx,2013-10-19 14:33:00,
2013-10-19 11:50:00,49.0,46.0,29.67,South,180,2.0,2.0,90,0.00,,,0.00,TxWx,2013-10-19 15:50:00,
2013-10-19 11:55:00,49.0,46.0,29.67,ESE,112,5.0,9.0,89,0.00,,,0.00,TxWx,2013-10-19 15:55:00,
2013-10-19 12:06:00,50.0,46.0,29.67,SSE,157,4.0,5.0,85,0.00,,,0.00,TxWx,2013-10-19 16:06:00,
2013-10-19 12:11:00,50.0,45.0,29.67,SE,135,6.0,6.0,83,0.00,,,0.00,TxWx,2013-10-19 16:11:00,
2013-10-19 12:16:00,50.0,44.0,29.66,South,180,1.0,1.0,81,0.00,,,0.00,TxWx,2013-10-19 16:16:00,
2013-10-19 12:21:00,51.0,45.0,29.66,SE,135,1.0,1.0,81,0.00,,,0.00,TxWx,2013-10-19 16:21:00,
2013-10-19 12:26:00,51.0,45.0,29.66,SE,135,6.0,8.0,80,0.00,,,0.00,TxWx,2013-10-19 16:26:00,
2013-10-19 12:31:00,51.0,44.0,29.65,SW,225,2.0,3.0,78,0.00,,,0.00,TxWx,2013-10-19 16:31:00,
2013-10-19 12:36:00,51.0,44.0,29.65,ESE,112,7.0,8.0,78,0.00,,,0.00,TxWx,2013-10-19 16:36:00,
2013-10-19 12:41:00,51.0,44.0,29.65,SSE,157,1.0,3.0,78,0.00,,,0.00,TxWx,2013-10-19 16:41:00,
2013-10-19 12:46:00,51.0,44.0,29.64,NNW,337,1.0,2.0,78,0.00,,,0.00,TxWx,2013-10-19 16:46:00,
2013-10-19 12:52:00,52.0,45.0,29.64,SSW,202,1.0,1.0,77,0.00,,,0.00,TxWx,2013-10-19 16:52:00,
2013-10-19 12:57:00,52.0,44.0,29.64,South,180,4.0,7.0,76,0.00,,,0.00,TxWx,2013-10-19 16:57:00,
2013-10-19 13:02:00,52.0,44.0,29.64,ESE,112,2.0,3.0,74,0.00,,,0.00,TxWx,2013-10-19 17:02:00,
2013-10-19 13:07:00,52.0,44.0,29.64,South,180,3.0,4.0,74,0.00,,,0.00,TxWx,2013-10-19 17:07:00,
2013-10-19 13:12:00,52.0,44.0,29.64,ESE,112,5.0,6.0,74,0.00,,,0.00,TxWx,2013-10-19 17:12:00,
2013-10-19 13:17:00,52.0,44.0,29.63,South,180,4.0,8.0,73,0.00,,,0.00,TxWx,2013-10-19 17:17:00,
2013-10-19 13:22:00,53.0,44.0,29.62,WSW,247,5.0,5.0,73,0.00,,,0.00,TxWx,2013-10-19 17:22:00,
2013-10-19 13:27:00,54.0,45.0,29.62,SSW,202,5.0,6.0,72,0.00,,,0.00,TxWx,2013-10-19 17:27:00,
2013-10-19 13:32:00,54.0,45.0,29.62,South,180,5.0,5.0,71,0.00,,,0.00,TxWx,2013-10-19 17:32:00,
2013-10-19 13:37:00,55.0,46.0,29.62,ESE,112,1.0,3.0,72,0.00,,,0.00,TxWx,2013-10-19 17:37:00,
2013-10-19 13:42:00,55.0,45.0,29.62,South,180,5.0,6.0,69,0.00,,,0.00,TxWx,2013-10-19 17:42:00,
2013-10-19 13:47:00,55.0,45.0,29.62,SE,135,2.0,3.0,68,0.00,,,0.00,TxWx,2013-10-19 17:47:00,
2013-10-19 13:53:00,55.0,45.0,29.62,SSW,202,1.0,3.0,68,0.00,,,0.00,TxWx,2013-10-19 17:53:00,
2013-10-19 13:58:00,56.0,46.0,29.62,West,270,1.0,2.0,69,0.00,,,0.00,TxWx,2013-10-19 17:58:00,
2013-10-19 14:03:00,56.0,46.0,29.61,ESE,112,3.0,3.0,68,0.00,,,0.00,TxWx,2013-10-19 18:03:00,
2013-10-19 14:08:00,56.0,45.0,29.61,South,180,5.0,5.0,67,0.00,,,0.00,TxWx,2013-10-19 18:08:00,
2013-10-19 14:13:00,55.0,44.0,29.61,South,180,5.0,9.0,67,0.00,,,0.00,TxWx,2013-10-19 18:13:00,
2013-10-19 14:18:00,55.0,44.0,29.61,WNW,292,5.0,5.0,67,0.00,,,0.00,TxWx,2013-10-19 18:18:00,
2013-10-19 14:23:00,55.0,44.0,29.61,SE,135,3.0,5.0,66,0.00,,,0.00,TxWx,2013-10-19 18:23:00,
2013-10-19 14:28:00,55.0,43.0,29.60,SW,225,5.0,6.0,65,0.00,,,0.00,TxWx,2013-10-19 18:28:00,
2013-10-19 14:33:00,55.0,43.0,29.60,SE,135,10.0,10.0,64,0.00,,,0.00,TxWx,2013-10-19 18:33:00,
2013-10-19 14:38:00,55.0,43.0,29.61,SSW,202,5.0,6.0,64,0.00,,,0.00,TxWx,2013-10-19 18:38:00,
2013-10-19 14:43:00,55.0,43.0,29.60,SSE,157,4.0,5.0,65,0.00,,,0.00,TxWx,2013-10-19 18:43:00,
2013-10-19 14:49:00,55.0,43.0,29.60,ESE,112,7.0,8.0,65,0.00,,,0.00,TxWx,2013-10-19 18:49:00,
2013-10-19 14:54:00,55.0,43.0,29.59,WSW,247,7.0,8.0,64,0.00,,,0.00,TxWx,2013-10-19 18:54:00,
2013-10-19 14:59:00,55.0,43.0,29.59,SSW,202,4.0,5.0,64,0.00,,,0.00,TxWx,2013-10-19 18:59:00,
2013-10-19 15:00:00,44.0,43.0,29.43,SSW,202,1.0,1.0,97,0.00,,,0.00,TxWx,2013-10-19 19:00:00,
2013-10-19 15:01:00,44.0,43.0,29.43,West,270,2.0,2.0,97,0.00,,,0.00,TxWx,2013-10-19 19:01:00,
2013-10-19 15:02:00,44.0,43.0,29.44,South,180,3.0,5.0,97,0.00,,,0.01,TxWx,2013-10-19 19:02:00,
2013-10-19 15:03:00,44.0,43.0,29.43,South,180,2.0,2.0,97,0.00,,,0.01,TxWx,2013-10-19 19:03:00,
2013-10-19 15:04:00,55.0,43.0,29.58,SE,135,2.0,3.0,63,0.00,,,0.00,TxWx,2013-10-19 19:04:00,
2013-10-19 15:05:00,44.0,43.0,29.43,SSW,202,4.0,5.0,97,0.00,,,0.01,TxWx,2013-10-19 19:05:00,
2013-10-19 15:06:00,44.0,43.0,29.43,SSW,202,3.0,5.0,97,0.00,,,0.01,TxWx,2013-10-19 19:06:00,
2013-10-19 15:07:00,44.0,43.0,29.43,SE,135,2.0,2.0,97,0.00,,,0.01,TxWx,2013-10-19 19:07:00,
2013-10-19 15:08:00,44.0,43.0,29.43,West,270,1.0,2.0,97,0.00,,,0.01,TxWx,2013-10-19 19:08:00,
2013-10-19 15:09:00,55.0,42.0,29.59,SE,135,6.0,7.0,62,0.00,,,0.00,TxWx,2013-10-19 19:09:00,
2013-10-19 15:10:00,44.0,43.0,29.43,SSW,202,1.0,2.0,97,0.60,,,0.01,TxWx,2013-10-19 19:10:00,
2013-10-19 15:11:00,44.0,43.0,29.43,SSW,202,4.0,5.0,97,0.60,,,0.01,TxWx,2013-10-19 19:11:00,
2013-10-19 15:12:00,44.0,43.0,29.43,South,180,3.0,3.0,97,0.60,,,0.01,TxWx,2013-10-19 19:12:00,
2013-10-19 15:13:00,44.0,43.0,29.43,SW,225,2.0,2.0,97,0.60,,,0.01,TxWx,2013-10-19 19:13:00,
2013-10-19 15:14:00,55.0,42.0,29.59,SE,135,4.0,7.0,62,0.00,,,0.00,TxWx,2013-10-19 19:14:00,
2013-10-19 15:15:00,44.0,43.0,29.43,SW,225,4.0,5.0,98,0.60,,,0.01,TxWx,2013-10-19 19:15:00,
2013-10-19 15:16:00,44.0,43.0,29.43,SW,225,1.0,2.0,98,0.60,,,0.01,TxWx,2013-10-19 19:16:00,
2013-10-19 15:17:00,44.0,43.0,29.43,SSW,202,4.0,4.0,98,0.60,,,0.01,TxWx,2013-10-19 19:17:00,
2013-10-19 15:18:00,44.0,43.0,29.43,West,270,3.0,3.0,98,0.60,,,0.01,TxWx,2013-10-19 19:18:00,
2013-10-19 15:19:00,55.0,42.0,29.59,SSW,202,6.0,6.0,62,0.00,,,0.00,TxWx,2013-10-19 19:19:00,
2013-10-19 15:20:00,44.0,43.0,29.43,SW,225,3.0,5.0,98,0.00,,,0.01,TxWx,2013-10-19 19:20:00,
2013-10-19 15:21:00,44.0,43.0,29.43,SSW,202,2.0,3.0,98,0.00,,,0.01,TxWx,2013-10-19 19:21:00,
2013-10-19 15:22:00,44.0,43.0,29.43,SW,225,5.0,6.0,98,0.00,,,0.01,TxWx,2013-10-19 19:22:00,
2013-10-19 15:24:00,55.0,42.0,29.58,SSW,202,3.0,3.0,62,0.00,,,0.00,TxWx,2013-10-19 19:24:00,
2013-10-19 15:25:00,44.0,43.0,29.43,SW,225,5.0,6.0,98,0.00,,,0.01,TxWx,2013-10-19 19:25:00,
2013-10-19 15:26:00,44.0,43.0,29.43,WSW,247,1.0,1.0,98,0.00,,,0.01,TxWx,2013-10-19 19:26:00,
2013-10-19 15:27:00,44.0,43.0,29.43,SSW,202,3.0,5.0,98,0.00,,,0.01,TxWx,2013-10-19 19:27:00,
2013-10-19 15:29:00,55.0,42.0,29.58,SE,135,5.0,6.0,61,0.00,,,0.00,TxWx,2013-10-19 19:29:00,
2013-10-19 15:34:00,55.0,42.0,29.57,SSW,202,4.0,5.0,62,0.00,,,0.00,TxWx,2013-10-19 19:34:00,
2013-10-19 15:40:00,55.0,42.0,29.58,South,180,3.0,4.0,63,0.00,,,0.00,TxWx,2013-10-19 19:40:00,
2013-10-19 15:45:00,55.0,42.0,29.58,SW,225,4.0,5.0,63,0.00,,,0.00,TxWx,2013-10-19 19:45:00,
2013-10-19 15:50:00,55.0,42.0,29.58,SSE,157,1.0,1.0,63,0.00,,,0.00,TxWx,2013-10-19 19:50:00,
2013-10-19 15:55:00,55.0,43.0,29.57,SSE,157,2.0,3.0,63,0.00,,,0.00,TxWx,2013-10-19 19:55:00,
2013-10-19 16:00:00,55.0,43.0,29.57,SE,135,1.0,1.0,64,0.00,,,0.00,TxWx,2013-10-19 20:00:00,
2013-10-19 16:05:00,55.0,43.0,29.56,SSE,157,2.0,3.0,64,0.00,,,0.00,TxWx,2013-10-19 20:05:00,
2013-10-19 16:10:00,55.0,43.0,29.56,SSE,157,1.0,2.0,64,0.00,,,0.00,TxWx,2013-10-19 20:10:00,
2013-10-19 16:15:00,55.0,43.0,29.56,SSE,157,5.0,6.0,64,0.00,,,0.00,TxWx,2013-10-19 20:15:00,
2013-10-19 16:20:00,55.0,43.0,29.56,South,180,3.0,3.0,64,0.00,,,0.00,TxWx,2013-10-19 20:20:00,
2013-10-19 16:25:00,55.0,43.0,29.56,East,90,5.0,6.0,64,0.00,,,0.00,TxWx,2013-10-19 20:25:00,
2013-10-19 16:30:00,55.0,43.0,29.55,South,180,3.0,3.0,64,0.00,,,0.00,TxWx,2013-10-19 20:30:00,
2013-10-19 16:35:00,55.0,43.0,29.55,SSE,157,3.0,3.0,64,0.00,,,0.00,TxWx,2013-10-19 20:35:00,
2013-10-19 16:40:00,55.0,43.0,29.55,SE,135,3.0,5.0,64,0.00,,,0.00,TxWx,2013-10-19 20:40:00,
2013-10-19 16:45:00,54.0,42.0,29.55,SE,135,5.0,5.0,64,0.00,,,0.00,TxWx,2013-10-19 20:45:00,
2013-10-19 16:50:00,54.0,42.0,29.55,SE,135,3.0,4.0,65,0.00,,,0.00,TxWx,2013-10-19 20:50:00,
2013-10-19 16:55:00,54.0,43.0,29.55,SE,135,8.0,8.0,66,0.00,,,0.00,TxWx,2013-10-19 20:55:00,
2013-10-19 17:00:00,54.0,43.0,29.55,SSW,202,5.0,5.0,67,0.00,,,0.00,TxWx,2013-10-19 21:00:00,
2013-10-19 17:05:00,54.0,43.0,29.55,South,180,1.0,1.0,67,0.00,,,0.00,TxWx,2013-10-19 21:05:00,
2013-10-19 17:10:00,53.0,42.0,29.55,SE,135,8.0,8.0,67,0.00,,,0.00,TxWx,2013-10-19 21:10:00,
2013-10-19 17:15:00,53.0,42.0,29.55,ESE,112,5.0,5.0,66,0.00,,,0.00,TxWx,2013-10-19 21:15:00,
2013-10-19 17:20:00,53.0,42.0,29.55,SE,135,4.0,5.0,66,0.00,,,0.00,TxWx,2013-10-19 21:20:00,
2013-10-19 17:25:00,53.0,42.0,29.54,SSE,157,3.0,3.0,66,0.00,,,0.00,TxWx,2013-10-19 21:25:00,
2013-10-19 17:30:00,53.0,42.0,29.54,ESE,112,1.0,2.0,66,0.00,,,0.00,TxWx,2013-10-19 21:30:00,
2013-10-19 17:35:00,53.0,42.0,29.54,SE,135,4.0,5.0,65,0.00,,,0.00,TxWx,2013-10-19 21:35:00,
2013-10-19 17:40:00,53.0,42.0,29.54,South,180,1.0,1.0,66,0.00,,,0.00,TxWx,2013-10-19 21:40:00,
2013-10-19 17:45:00,53.0,42.0,29.53,SE,135,2.0,2.0,66,0.00,,,0.00,TxWx,2013-10-19 21:45:00,
2013-10-19 17:50:00,52.0,41.0,29.54,ESE,112,3.0,4.0,67,0.00,,,0.00,TxWx,2013-10-19 21:50:00,
2013-10-19 17:55:00,52.0,41.0,29.54,SSW,202,3.0,3.0,67,0.00,,,0.00,TxWx,2013-10-19 21:55:00,
2013-10-19 18:00:00,52.0,41.0,29.54,SSE,157,3.0,3.0,67,0.00,,,0.00,TxWx,2013-10-19 22:00:00,
2013-10-19 18:05:00,52.0,41.0,29.54,South,180,1.0,1.0,67,0.00,,,0.00,TxWx,2013-10-19 22:05:00,
2013-10-19 18:10:00,52.0,41.0,29.54,SE,135,3.0,3.0,67,0.00,,,0.00,TxWx,2013-10-19 22:10:00,
2013-10-19 18:15:00,52.0,41.0,29.53,South,180,1.0,1.0,67,0.00,,,0.00,TxWx,2013-10-19 22:15:00,
2013-10-19 18:20:00,51.0,41.0,29.53,South,180,0.0,0.0,68,0.00,,,0.00,TxWx,2013-10-19 22:20:00,
2013-10-19 18:25:00,51.0,41.0,29.53,SSE,157,2.0,3.0,68,0.00,,,0.00,TxWx,2013-10-19 22:25:00,
2013-10-19 18:30:00,51.0,41.0,29.53,SSW,202,1.0,1.0,68,0.00,,,0.00,TxWx,2013-10-19 22:30:00,
2013-10-19 18:35:00,51.0,41.0,29.53,South,180,1.0,1.0,69,0.00,,,0.00,TxWx,2013-10-19 22:35:00,
2013-10-19 18:40:00,51.0,41.0,29.53,SSE,157,1.0,1.0,69,0.00,,,0.00,TxWx,2013-10-19 22:40:00,
2013-10-19 18:45:00,51.0,41.0,29.52,South,180,1.0,1.0,68,0.00,,,0.00,TxWx,2013-10-19 22:45:00,
2013-10-19 18:50:00,51.0,41.0,29.52,SE,135,2.0,3.0,68,0.00,,,0.00,TxWx,2013-10-19 22:50:00,
2013-10-19 18:55:00,51.0,41.0,29.52,SE,135,3.0,5.0,68,0.00,,,0.00,TxWx,2013-10-19 22:55:00,
2013-10-19 19:00:00,51.0,40.0,29.52,ESE,112,6.0,8.0,67,0.00,,,0.00,TxWx,2013-10-19 23:00:00,
2013-10-19 19:05:00,51.0,40.0,29.52,SSW,202,2.0,3.0,66,0.00,,,0.00,TxWx,2013-10-19 23:05:00,
2013-10-19 19:10:00,51.0,40.0,29.52,South,180,8.0,13.0,66,0.00,,,0.00,TxWx,2013-10-19 23:10:00,
2013-10-19 19:15:00,51.0,40.0,29.52,SE,135,2.0,3.0,66,0.00,,,0.00,TxWx,2013-10-19 23:15:00,
2013-10-19 19:20:00,51.0,40.0,29.52,WNW,292,3.0,4.0,66,0.00,,,0.00,TxWx,2013-10-19 23:20:00,
2013-10-19 19:24:00,51.0,40.0,29.52,South,180,3.0,3.0,66,0.00,,,0.00,TxWx,2013-10-19 23:24:00,
2013-10-19 19:29:00,51.0,40.0,29.52,South,180,3.0,5.0,67,0.00,,,0.00,TxWx,2013-10-19 23:29:00,
2013-10-19 19:35:00,51.0,40.0,29.52,SSW,202,8.0,12.0,67,0.00,,,0.00,TxWx,2013-10-19 23:35:00,
2013-10-19 19:40:00,51.0,41.0,29.52,SE,135,10.0,10.0,68,0.00,,,0.00,TxWx,2013-10-19 23:40:00,
2013-10-19 19:45:00,51.0,41.0,29.51,SSE,157,6.0,6.0,69,0.00,,,0.00,TxWx,2013-10-19 23:45:00,
2013-10-19 19:50:00,50.0,40.0,29.51,SW,225,14.0,16.0,70,0.00,,,0.00,TxWx,2013-10-19 23:50:00,
2013-10-19 19:55:00,50.0,41.0,29.51,WSW,247,15.0,15.0,70,0.00,,,0.00,TxWx,2013-10-19 23:55:00,
2013-10-19 19:59:00,41.0,41.0,29.51,West,270,8.0,8.0,99,0.00,,,0.06,TxWx,2013-10-19 23:59:00,
2013-10-19 20:00:00,50.0,41.0,29.51,WSW,247,8.0,12.0,71,0.00,,,0.00,TxWx,2013-10-20 00:00:00,
2013-10-19 20:01:00,41.0,40.0,29.51,WSW,247,8.0,9.0,98,0.00,,,0.06,TxWx,2013-10-20 00:01:00,
2013-10-19 20:03:00,41.0,40.0,29.51,ENE,67,4.0,6.0,98,0.00,,,0.06,TxWx,2013-10-20 00:03:00,
2013-10-19 20:05:00,50.0,41.0,29.51,ESE,112,5.0,5.0,72,0.00,,,0.00,TxWx,2013-10-20 00:05:00,
2013-10-19 20:07:00,41.0,40.0,29.51,WNW,292,1.0,1.0,98,0.00,,,0.06,TxWx,2013-10-20 00:07:00,
2013-10-19 20:08:00,41.0,40.0,29.51,SW,225,3.0,6.0,98,0.00,,,0.06,TxWx,2013-10-20 00:08:00,
2013-10-19 20:09:00,41.0,40.0,29.51,WSW,247,3.0,5.0,98,0.00,,,0.06,TxWx,2013-10-20 00:09:00,
2013-10-19 20:10:00,49.0,40.0,29.51,SW,225,2.0,3.0,72,0.00,,,0.00,TxWx,2013-10-20 00:10:00,
2013-10-19 20:12:00,41.0,40.0,29.51,NNE,22,3.0,4.0,98,0.00,,,0.06,TxWx,2013-10-20 00:12:00,
2013-10-19 20:14:00,49.0,41.0,29.51,SSW,202,6.0,6.0,73,0.00,,,0.00,TxWx,2013-10-20 00:14:00,
2013-10-19 20:15:00,41.0,40.0,29.51,West,270,9.0,10.0,97,0.00,,,0.06,TxWx,2013-10-20 00:15:00,
2013-10-19 20:16:00,41.0,40.0,29.51,WSW,247,10.0,13.0,97,0.00,,,0.06,TxWx,2013-10-20 00:16:00,
2013-10-19 20:17:00,41.0,40.0,29.51,West,270,10.0,11.0,97,0.00,,,0.06,TxWx,2013-10-20 00:17:00,
2013-10-19 20:19:00,49.0,41.0,29.51,WSW,247,7.0,8.0,74,0.00,,,0.00,TxWx,2013-10-20 00:19:00,
2013-10-19 20:20:00,41.0,40.0,29.52,WNW,292,7.0,12.0,97,0.00,,,0.06,TxWx,2013-10-20 00:20:00,
2013-10-19 20:21:00,41.0,40.0,29.52,NNE,22,5.0,6.0,96,0.00,,,0.06,TxWx,2013-10-20 00:21:00,
2013-10-19 20:23:00,41.0,40.0,29.52,West,270,8.0,11.0,96,0.00,,,0.06,TxWx,2013-10-20 00:23:00,
2013-10-19 20:24:00,49.0,41.0,29.51,SSW,202,5.0,6.0,75,0.00,,,0.00,TxWx,2013-10-20 00:24:00,
2013-10-19 20:29:00,49.0,41.0,29.50,SW,225,6.0,6.0,75,0.00,,,0.00,TxWx,2013-10-20 00:29:00,
2013-10-19 20:35:00,49.0,42.0,29.50,SE,135,1.0,1.0,76,0.00,,,0.00,TxWx,2013-10-20 00:35:00,
2013-10-19 20:40:00,49.0,42.0,29.50,East,90,4.0,5.0,76,0.00,,,0.00,TxWx,2013-10-20 00:40:00,
2013-10-19 20:45:00,49.0,42.0,29.50,South,180,2.0,3.0,77,0.00,,,0.00,TxWx,2013-10-20 00:45:00,
2013-10-19 20:50:00,49.0,42.0,29.50,South,180,1.0,3.0,77,0.00,,,0.00,TxWx,2013-10-20 00:50:00,
2013-10-19 20:55:00,48.0,42.0,29.50,SSW,202,1.0,2.0,79,0.00,,,0.00,TxWx,2013-10-20 00:55:00,
2013-10-19 21:00:00,48.0,42.0,29.50,WNW,292,3.0,5.0,79,0.00,,,0.00,TxWx,2013-10-20 01:00:00,
2013-10-19 21:05:00,48.0,42.0,29.50,SE,135,2.0,3.0,81,0.00,,,0.00,TxWx,2013-10-20 01:05:00,
2013-10-19 21:10:00,47.0,42.0,29.50,SSW,202,2.0,3.0,82,0.00,,,0.00,TxWx,2013-10-20 01:10:00,
2013-10-19 21:15:00,47.0,42.0,29.50,ESE,112,4.0,4.0,83,0.00,,,0.00,TxWx,2013-10-20 01:15:00,
2013-10-19 21:20:00,47.0,43.0,29.49,SE,135,2.0,2.0,85,0.00,,,0.00,TxWx,2013-10-20 01:20:00,
2013-10-19 21:25:00,47.0,43.0,29.49,South,180,1.0,1.0,85,0.00,,,0.00,TxWx,2013-10-20 01:25:00,
2013-10-19 21:30:00,46.0,42.0,29.49,SE,135,1.0,3.0,86,0.00,,,0.00,TxWx,2013-10-20 01:30:00,
2013-10-19 21:35:00,46.0,42.0,29.49,East,90,3.0,3.0,87,0.00,,,0.01,TxWx,2013-10-20 01:35:00,
2013-10-19 21:40:00,46.0,42.0,29.49,SSE,157,0.0,1.0,88,0.00,,,0.01,TxWx,2013-10-20 01:40:00,
2013-10-19 21:45:00,46.0,43.0,29.48,East,90,3.0,4.0,88,0.60,,,0.01,TxWx,2013-10-20 01:45:00,
2013-10-19 21:50:00,46.0,43.0,29.48,SSE,157,2.0,2.0,89,0.60,,,0.01,TxWx,2013-10-20 01:50:00,
2013-10-19 21:55:00,46.0,43.0,29.48,SSE,157,3.0,3.0,90,0.00,,,0.01,TxWx,2013-10-20 01:55:00,
2013-10-19 22:00:00,46.0,43.0,29.48,SE,135,5.0,5.0,90,0.00,,,0.01,TxWx,2013-10-20 02:00:00,
2013-10-19 22:05:00,46.0,43.0,29.48,ESE,112,2.0,3.0,91,0.00,,,0.01,TxWx,2013-10-20 02:05:00,
2013-10-19 22:10:00,45.0,43.0,29.48,ESE,112,5.0,5.0,91,0.00,,,0.01,TxWx,2013-10-20 02:10:00,
2013-10-19 22:15:00,45.0,43.0,29.47,SSE,157,2.0,3.0,92,0.00,,,0.01,TxWx,2013-10-20 02:15:00,
2013-10-19 22:20:00,45.0,43.0,29.47,SSW,202,3.0,3.0,92,0.00,,,0.02,TxWx,2013-10-20 02:20:00,
2013-10-19 22:25:00,45.0,43.0,29.47,ESE,112,1.0,1.0,92,0.60,,,0.02,TxWx,2013-10-20 02:25:00,
2013-10-19 22:30:00,45.0,43.0,29.47,SW,225,2.0,3.0,93,0.60,,,0.02,TxWx,2013-10-20 02:30:00,
2013-10-19 22:35:00,45.0,43.0,29.47,SE,135,1.0,1.0,93,0.00,,,0.02,TxWx,2013-10-20 02:35:00,
2013-10-19 22:40:00,45.0,43.0,29.47,SE,135,1.0,3.0,93,0.00,,,0.03,TxWx,2013-10-20 02:40:00,
2013-10-19 22:45:00,45.0,43.0,29.46,South,180,3.0,3.0,93,0.60,,,0.03,TxWx,2013-10-20 02:45:00,
2013-10-19 22:50:00,45.0,43.0,29.47,SSE,157,2.0,3.0,94,0.60,,,0.03,TxWx,2013-10-20 02:50:00,
2013-10-19 22:55:00,45.0,43.0,29.46,South,180,3.0,3.0,94,0.00,,,0.04,TxWx,2013-10-20 02:55:00,
2013-10-19 23:00:00,45.0,43.0,29.46,SE,135,4.0,5.0,94,0.00,,,0.04,TxWx,2013-10-20 03:00:00,
2013-10-19 23:05:00,45.0,43.0,29.46,SSW,202,3.0,5.0,94,0.60,,,0.04,TxWx,2013-10-20 03:05:00,
2013-10-19 23:10:00,45.0,43.0,29.46,SE,135,3.0,3.0,94,0.60,,,0.05,TxWx,2013-10-20 03:10:00,
2013-10-19 23:15:00,45.0,44.0,29.45,South,180,2.0,3.0,95,0.60,,,0.05,TxWx,2013-10-20 03:15:00,
2013-10-19 23:20:00,44.0,43.0,29.45,SSE,157,3.0,3.0,95,0.60,,,0.05,TxWx,2013-10-20 03:20:00,
2013-10-19 23:25:00,44.0,43.0,29.45,SE,135,1.0,2.0,95,0.00,,,0.06,TxWx,2013-10-20 03:25:00,
2013-10-19 23:30:00,44.0,43.0,29.44,SE,135,2.0,3.0,95,0.00,,,0.06,TxWx,2013-10-20 03:30:00,
2013-10-19 23:35:00,44.0,43.0,29.44,South,180,2.0,3.0,96,0.60,,,0.06,TxWx,2013-10-20 03:35:00,
2013-10-19 23:40:00,44.0,43.0,29.44,ENE,67,4.0,4.0,96,0.60,,,0.07,TxWx,2013-10-20 03:40:00,
2013-10-19 23:45:00,44.0,43.0,29.44,SSE,157,3.0,4.0,96,0.60,,,0.07,TxWx,2013-10-20 03:45:00,
2013-10-19 23:50:00,44.0,43.0,29.44,SE,135,3.0,3.0,96,0.60,,,0.07,TxWx,2013-10-20 03:50:00,
2013-10-19 23:55:00,44.0,43.0,29.44,SE,135,3.0,4.0,97,0.00,,,0.07,TxWx,2013-10-20 03:55:00,